Time;durP1;ratioP1;P1;durP2;ratioP2;P2;SDS_P1;SDS_P2;PMS_P1;PMS_P2;Temp;Humidity;BMP_temperature;BMP_pressure;BME280_temperature;BME280_humidity;BME280_pressure;Samples;Min_cycle;Max_cycle;Signal;HPM_P1;HPM_P2
2024/03/14 00:01:26;;;;;;;0.08;0.08;;;;;;;11.31;81.59;99693.16;7361963;19;20018;-61
2024/03/14 00:03:54;;;;;;;0.10;0.10;;;;;;;11.29;81.40;99694.97;7363219;19;20020;-62
2024/03/14 00:06:22;;;;;;;0.10;0.10;;;;;;;11.28;81.33;99690.66;7357266;19;20050;-61
2024/03/14 00:08:47;;;;;;;0.10;0.10;;;;;;;11.25;81.22;99694.22;7359768;19;20637;-61
2024/03/14 00:11:13;;;;;;;0.10;0.10;;;;;;;11.20;81.30;99679.66;7359214;19;19998;-61
2024/03/14 00:13:39;;;;;;;0.10;0.10;;;;;;;11.18;81.23;99683.19;7360729;19;20519;-62
2024/03/14 00:16:05;;;;;;;0.10;0.10;;;;;;;11.17;81.45;99673.66;7361054;19;20514;-62
2024/03/14 00:18:31;;;;;;;0.10;0.10;;;;;;;11.15;81.59;99672.88;7370428;19;20003;-62
2024/03/14 00:20:57;;;;;;;0.10;0.10;;;;;;;11.14;81.63;99673.78;7369242;19;20431;-62
2024/03/14 00:23:23;;;;;;;0.10;0.10;;;;;;;11.12;81.48;99666.94;7370020;19;20066;-61
2024/03/14 00:25:51;;;;;;;0.10;0.10;;;;;;;11.10;81.32;99659.16;7363944;19;20894;-62
2024/03/14 00:28:16;;;;;;;0.10;0.10;;;;;;;11.07;81.31;99651.44;7369253;19;20042;-62
2024/03/14 00:30:42;;;;;;;0.10;0.10;;;;;;;10.98;81.67;99637.91;7369003;19;19999;-62
2024/03/14 00:33:07;;;;;;;0.10;0.10;;;;;;;11.01;81.79;99645.63;7365313;19;20041;-62
2024/03/14 00:35:33;;;;;;;0.17;0.17;;;;;;;10.98;81.71;99643.97;7367484;19;20090;-62
2024/03/14 00:37:59;;;;;;;0.10;0.10;;;;;;;10.95;81.28;99638.03;7368609;19;20469;-61
2024/03/14 00:40:24;;;;;;;0.10;0.10;;;;;;;10.92;81.34;99639.00;7367352;19;19999;-62
2024/03/14 00:42:51;;;;;;;0.10;0.10;;;;;;;10.89;81.62;99634.75;7361657;19;20017;-61
2024/03/14 00:45:19;;;;;;;0.10;0.10;;;;;;;10.86;81.84;99642.72;7365677;19;20013;-62
2024/03/14 00:47:45;;;;;;;0.10;0.10;;;;;;;10.84;81.80;99635.84;7363993;19;20038;-61
2024/03/14 00:50:11;;;;;;;0.05;0.05;;;;;;;10.81;81.76;99631.63;7367946;19;20700;-62
2024/03/14 00:52:37;;;;;;;0.10;0.10;;;;;;;10.80;81.70;99636.91;7367486;19;20003;-62
2024/03/14 00:55:05;;;;;;;0.10;0.10;;;;;;;10.77;81.69;99631.81;7369128;19;20375;-62
2024/03/14 00:57:30;;;;;;;;;;;;;;;10.80;81.01;99623.84;7369006;19;20011;-62
2024/03/14 00:59:55;;;;;;;0.10;0.10;;;;;;;10.75;81.47;99620.59;7365454;19;20279;-62
2024/03/14 01:02:21;;;;;;;0.10;0.10;;;;;;;10.74;81.91;99616.25;7365697;19;20015;-62
2024/03/14 01:04:49;;;;;;;0.10;0.10;;;;;;;10.71;81.65;99604.19;7367236;19;20363;-62
2024/03/14 01:07:15;;;;;;;0.10;0.10;;;;;;;10.69;81.67;99605.13;7361050;19;20057;-62
2024/03/14 01:09:40;;;;;;;0.10;0.10;;;;;;;10.68;81.87;99598.22;7361634;19;20754;-62
2024/03/14 01:12:05;;;;;;;0.10;0.10;;;;;;;10.67;81.72;99591.31;7359096;19;20002;-62
2024/03/14 01:14:31;;;;;;;0.10;0.10;;;;;;;10.56;81.91;99579.53;7367323;19;20037;-62
2024/03/14 01:16:56;;;;;;;0.10;0.10;;;;;;;10.64;81.73;99587.94;7360302;19;20574;-62
2024/03/14 01:19:22;;;;;;;0.10;0.10;;;;;;;10.65;81.84;99586.16;7362899;19;19995;-62
2024/03/14 01:21:47;;;;;;;0.10;0.10;;;;;;;10.63;82.16;99586.19;7368446;19;19995;-62
2024/03/14 01:24:13;;;;;;;0.13;0.13;;;;;;;10.61;82.25;99577.59;7367224;19;20123;-62
2024/03/14 01:26:40;;;;;;;0.10;0.10;;;;;;;10.61;81.96;99574.97;7360745;19;20018;-62
2024/03/14 01:29:06;;;;;;;0.10;0.10;;;;;;;10.61;82.17;99577.59;7367490;19;20639;-62
2024/03/14 01:31:32;;;;;;;0.10;0.10;;;;;;;10.61;82.01;99572.38;7366242;19;20007;-61
2024/03/14 01:33:58;;;;;;;0.10;0.10;;;;;;;10.60;81.76;99570.69;7363600;19;20018;-62
2024/03/14 01:36:24;;;;;;;0.10;0.10;;;;;;;10.61;82.23;99576.75;7364316;19;20029;-61
2024/03/14 01:38:51;;;;;;;0.10;0.10;;;;;;;10.58;81.82;99576.84;7365204;19;20014;-62
2024/03/14 01:41:18;;;;;;;0.10;0.10;;;;;;;10.59;82.16;99576.81;7367200;19;20754;-62
2024/03/14 01:43:59;;;;;;;0.10;0.10;;;;;;;10.60;82.10;99565.47;7359051;19;21366;-62
2024/03/14 01:46:28;;;;;;;0.10;0.10;;;;;;;10.53;81.96;99558.78;7364201;19;20471;-61
2024/03/14 01:48:58;;;;;;;0.10;0.10;;;;;;;10.62;82.27;99563.63;7365832;19;20010;-62
2024/03/14 01:51:24;;;;;;;0.10;0.10;;;;;;;10.60;81.85;99560.25;7360844;19;20010;-62
2024/03/14 01:53:52;;;;;;;0.10;0.10;;;;;;;10.59;82.02;99558.53;7362213;19;20035;-61
2024/03/14 01:56:21;;;;;;;0.10;0.10;;;;;;;10.60;82.23;99546.34;7361412;19;20018;-60
2024/03/14 01:58:53;;;;;;;0.10;0.10;;;;;;;10.50;81.94;99518.91;7359743;19;20015;-62
2024/03/14 02:01:20;;;;;;;0.10;0.10;;;;;;;10.62;81.93;99532.28;7363869;19;20006;-63
2024/03/14 02:03:51;;;;;;;0.05;0.05;;;;;;;10.65;81.82;99518.28;7360954;19;20011;-61
2024/03/14 02:06:34;;;;;;;0.10;0.10;;;;;;;10.67;81.99;99516.44;7364081;19;20015;-62
2024/03/14 02:09:00;;;;;;;0.10;0.10;;;;;;;10.65;81.79;99516.50;7362420;19;20009;-61
2024/03/14 02:11:25;;;;;;;0.10;0.10;;;;;;;10.52;82.13;99489.22;7360940;19;20003;-62
2024/03/14 02:13:51;;;;;;;0.10;0.10;;;;;;;10.68;82.07;99510.31;7360335;19;20010;-61
2024/03/14 02:16:16;;;;;;;0.10;0.10;;;;;;;10.68;82.09;99497.25;7363993;19;20375;-62
2024/03/14 02:18:42;;;;;;;0.10;0.10;;;;;;;10.57;82.00;99474.22;7363391;19;20002;-61
2024/03/14 02:21:08;;;;;;;0.10;0.10;;;;;;;10.69;82.14;99506.78;7365669;19;20020;-62
2024/03/14 02:23:34;;;;;;;0.10;0.10;;;;;;;10.69;81.96;99492.88;7362186;19;19999;-62
2024/03/14 02:26:00;;;;;;;0.10;0.10;;;;;;;10.71;82.09;99488.44;7363053;19;20018;-61
2024/03/14 02:28:25;;;;;;;0.20;0.20;;;;;;;10.70;81.80;99490.22;7358595;19;20098;-62
2024/03/14 02:30:51;;;;;;;0.10;0.10;;;;;;;10.72;81.99;99484.91;7364666;19;20024;-62
2024/03/14 02:33:16;;;;;;;0.10;0.10;;;;;;;10.72;81.62;99472.72;7361110;19;20112;-61
2024/03/14 02:35:41;;;;;;;0.10;0.10;;;;;;;10.73;81.61;99463.09;7361462;19;20442;-62
2024/03/14 02:38:08;;;;;;;0.10;0.10;;;;;;;10.74;81.83;99459.56;7359737;19;20007;-62
2024/03/14 02:40:34;;;;;;;0.10;0.10;;;;;;;10.74;81.67;99463.03;7365676;19;20006;-62
2024/03/14 02:43:00;;;;;;;0.10;0.10;;;;;;;10.73;81.89;99448.28;7361834;19;19995;-62
2024/03/14 02:45:25;;;;;;;0.10;0.10;;;;;;;10.67;82.04;99445.09;7357442;19;20446;-62
2024/03/14 02:47:51;;;;;;;0.10;0.10;;;;;;;10.75;81.56;99440.41;7364801;19;20038;-62
2024/03/14 02:50:16;;;;;;;0.10;0.10;;;;;;;10.75;81.54;99437.81;7358660;19;20002;-62
2024/03/14 02:52:42;;;;;;;0.10;0.10;;;;;;;10.76;81.49;99436.88;7365325;19;20098;-62
2024/03/14 02:55:07;;;;;;;0.13;0.13;;;;;;;10.75;81.96;99435.19;7359344;19;20069;-62
2024/03/14 02:57:34;;;;;;;0.10;0.10;;;;;;;10.60;81.98;99401.00;7359980;19;20006;-62
2024/03/14 03:00:00;;;;;;;0.10;0.10;;;;;;;10.76;81.75;99429.88;7364360;19;20050;-62
2024/03/14 03:02:26;;;;;;;0.10;0.10;;;;;;;10.77;81.45;99428.13;7366133;19;20013;-62
2024/03/14 03:04:51;;;;;;;0.10;0.10;;;;;;;10.78;81.77;99427.19;7365255;19;20085;-61
2024/03/14 03:07:18;;;;;;;0.10;0.10;;;;;;;10.60;81.60;99387.09;7365457;19;20006;-62
2024/03/14 03:09:44;;;;;;;0.10;0.10;;;;;;;10.79;81.44;99408.00;7363942;19;20073;-60
2024/03/14 03:12:09;;;;;;;0.10;0.10;;;;;;;10.69;81.83;99380.59;7366916;19;21462;-62
2024/03/14 03:14:36;;;;;;;0.17;0.17;;;;;;;10.80;81.81;99397.50;7362382;19;20015;-62
2024/03/14 03:17:01;;;;;;;0.10;0.10;;;;;;;10.76;81.56;99385.50;7361743;19;20022;-62
2024/03/14 03:19:27;;;;;;;0.00;0.00;;;;;;;10.83;81.53;99393.91;7365655;19;20017;-62
2024/03/14 03:21:53;;;;;;;0.20;0.20;;;;;;;10.85;81.43;99381.63;7361567;19;20023;-62
2024/03/14 03:24:18;;;;;;;0.10;0.10;;;;;;;10.85;81.72;99376.41;7366574;19;20020;-62
2024/03/14 03:26:44;;;;;;;0.10;0.10;;;;;;;10.86;81.44;99373.72;7366005;19;20019;-62
2024/03/14 03:29:12;;;;;;;0.10;0.10;;;;;;;10.88;81.33;99373.66;7368054;19;20009;-62
2024/03/14 03:31:38;;;;;;;0.10;0.10;;;;;;;10.87;81.55;99364.13;7364445;19;20006;-62
2024/03/14 03:34:04;;;;;;;0.10;0.10;;;;;;;10.88;81.40;99355.38;7363118;19;20713;-62
2024/03/14 03:36:29;;;;;;;0.10;0.10;;;;;;;10.88;81.66;99347.53;7365140;19;20110;-62
2024/03/14 03:38:56;;;;;;;0.10;0.10;;;;;;;10.89;81.62;99344.00;7358780;19;20030;-62
2024/03/14 03:41:23;;;;;;;0.10;0.10;;;;;;;10.77;81.65;99321.06;7366101;19;20032;-61
2024/03/14 03:43:50;;;;;;;0.00;0.00;;;;;;;10.89;81.30;99341.38;7360956;19;20005;-62
2024/03/14 03:46:16;;;;;;;0.10;0.10;;;;;;;10.89;81.19;99330.94;7364668;19;20006;-61
2024/03/14 03:48:41;;;;;;;0.10;0.10;;;;;;;10.88;81.20;99324.88;7360126;19;20013;-62
2024/03/14 03:51:06;;;;;;;0.10;0.10;;;;;;;10.89;81.16;99325.72;7370880;19;19998;-62
2024/03/14 03:53:35;;;;;;;0.10;0.10;;;;;;;10.88;81.39;99316.19;7373157;19;20597;-62
2024/03/14 03:56:04;;;;;;;0.00;0.00;;;;;;;10.90;81.22;99311.75;7370594;19;20014;-62
2024/03/14 03:58:33;;;;;;;0.10;0.10;;;;;;;10.89;81.58;99305.66;7370772;19;20017;-62
2024/03/14 04:01:10;;;;;;;0.10;0.10;;;;;;;10.89;81.61;99302.22;7370326;19;19995;-62
2024/03/14 04:03:36;;;;;;;0.10;0.10;;;;;;;10.85;81.36;99293.69;7367639;19;20010;-62
2024/03/14 04:06:02;;;;;;;0.10;0.10;;;;;;;10.91;81.15;99292.56;7366441;19;20009;-62
2024/03/14 04:08:28;;;;;;;0.13;0.13;;;;;;;10.90;81.13;99293.47;7372635;19;20537;-62
2024/03/14 04:10:54;;;;;;;0.10;0.10;;;;;;;10.89;81.28;99284.78;7364942;19;20814;-61
2024/03/14 04:13:19;;;;;;;0.15;0.15;;;;;;;10.89;81.19;99279.56;7368821;19;19999;-62
2024/03/14 04:15:46;;;;;;;0.20;0.20;;;;;;;10.91;81.33;99282.13;7352861;19;20038;-62
2024/03/14 04:18:12;;;;;;;0.10;0.10;;;;;;;10.77;81.35;99253.19;7369115;19;20478;-62
2024/03/14 04:20:37;;;;;;;0.10;0.10;;;;;;;10.87;81.36;99264.88;7372377;19;20023;-61
2024/03/14 04:23:05;;;;;;;0.10;0.10;;;;;;;10.91;81.70;99266.44;7370187;19;20095;-62
2024/03/14 04:25:33;;;;;;;0.10;0.10;;;;;;;10.80;81.28;99242.59;7369432;19;20014;-62
2024/03/14 04:27:59;;;;;;;0.20;0.20;;;;;;;10.94;81.39;99263.66;7369539;19;20012;-61
2024/03/14 04:30:24;;;;;;;0.20;0.20;;;;;;;10.94;81.62;99255.84;7372998;19;20085;-61
2024/03/14 04:32:51;;;;;;;0.10;0.10;;;;;;;10.96;81.48;99256.63;7367561;19;20070;-61
2024/03/14 04:35:17;;;;;;;0.10;0.10;;;;;;;10.96;81.36;99250.56;7371562;19;20031;-62
2024/03/14 04:37:47;;;;;;;0.10;0.10;;;;;;;10.98;81.67;99248.72;7372648;19;20487;-61
2024/03/14 04:40:19;;;;;;;0.10;0.10;;;;;;;10.99;81.78;99247.78;7368644;19;20070;-62
2024/03/14 04:42:46;;;;;;;0.17;0.17;;;;;;;11.00;81.63;99246.84;7370332;19;20047;-62
2024/03/14 04:45:17;;;;;;;0.10;0.10;;;;;;;11.03;81.47;99241.50;7367097;19;20003;-62
2024/03/14 04:47:44;;;;;;;0.10;0.10;;;;;;;10.93;81.73;99219.34;7370737;19;20033;-62
2024/03/14 04:50:10;;;;;;;0.10;0.10;;;;;;;11.07;81.80;99236.06;7372972;19;20014;-62
2024/03/14 04:52:41;;;;;;;0.20;0.20;;;;;;;11.12;81.93;99225.38;7368983;19;20003;-62
2024/03/14 04:55:10;;;;;;;0.10;0.10;;;;;;;11.14;82.07;99226.16;7372076;19;20621;-62
2024/03/14 04:57:36;;;;;;;0.20;0.20;;;;;;;11.18;81.73;99228.53;7369098;19;20010;-62
2024/03/14 05:00:11;;;;;;;0.10;0.10;;;;;;;11.22;81.99;99213.56;7371744;19;20026;-61
2024/03/14 05:02:39;;;;;;;0.17;0.17;;;;;;;11.23;82.09;99214.41;7363224;19;20003;-61
2024/03/14 05:05:05;;;;;;;0.10;0.10;;;;;;;11.29;81.92;99214.09;7369367;19;20833;-59
2024/03/14 05:07:31;;;;;;;0.10;0.10;;;;;;;11.33;82.30;99210.41;7365140;19;20006;-59
2024/03/14 05:09:56;;;;;;;0.20;0.20;;;;;;;11.37;82.43;99198.91;7371234;19;20728;-60
2024/03/14 05:12:22;;;;;;;0.10;0.10;;;;;;;11.41;82.26;99197.84;7369559;19;20025;-59
2024/03/14 05:14:48;;;;;;;0.10;0.10;;;;;;;11.43;82.12;99198.59;7366992;19;20022;-60
2024/03/14 05:17:14;;;;;;;0.10;0.10;;;;;;;11.53;82.50;99185.91;7368406;19;19999;-59
2024/03/14 05:19:39;;;;;;;0.10;0.10;;;;;;;11.58;82.37;99179.50;7368793;19;20018;-60
2024/03/14 05:22:05;;;;;;;0.10;0.10;;;;;;;11.63;82.27;99177.50;7367364;19;20034;-60
2024/03/14 05:24:30;;;;;;;0.10;0.10;;;;;;;11.70;82.45;99188.47;7370495;19;20013;-61
2024/03/14 05:26:56;;;;;;;0.10;0.10;;;;;;;11.75;82.54;99191.72;7367528;19;20019;-60
2024/03/14 05:29:22;;;;;;;0.10;0.10;;;;;;;11.82;82.67;99181.81;7369644;19;20014;-61
2024/03/14 05:31:48;;;;;;;0.10;0.10;;;;;;;11.88;82.66;99184.13;7364704;19;20632;-59
2024/03/14 05:34:13;;;;;;;0.10;0.10;;;;;;;11.90;82.56;99183.09;7367300;19;20030;-60
2024/03/14 05:36:38;;;;;;;0.10;0.10;;;;;;;11.96;82.43;99174.09;7363409;19;20458;-61
2024/03/14 05:39:04;;;;;;;0.10;0.10;;;;;;;12.01;82.44;99187.75;7367270;19;20405;-61
2024/03/14 05:41:29;;;;;;;0.10;0.10;;;;;;;12.05;82.41;99178.84;7368701;19;20002;-61
2024/03/14 05:43:55;;;;;;;0.10;0.10;;;;;;;12.09;82.54;99185.59;7369429;19;20003;-61
2024/03/14 05:46:20;;;;;;;0.10;0.10;;;;;;;12.10;82.39;99187.28;7367068;19;19999;-61
2024/03/14 05:48:46;;;;;;;0.20;0.20;;;;;;;12.15;82.49;99184.44;7367017;19;20009;-61
2024/03/14 05:51:12;;;;;;;0.10;0.10;;;;;;;12.17;82.32;99183.44;7369563;19;20006;-62
2024/03/14 05:53:37;;;;;;;0.10;0.10;;;;;;;12.11;82.53;99168.03;7368747;19;20018;-62
2024/03/14 05:56:03;;;;;;;0.10;0.10;;;;;;;12.22;82.41;99187.59;7368975;19;20002;-62
2024/03/14 05:58:30;;;;;;;0.10;0.10;;;;;;;12.23;82.24;99176.19;7367504;19;20491;-62
2024/03/14 06:00:56;;;;;;;;;;;;;;;12.31;82.67;99184.44;7367599;19;19999;-62
2024/03/14 06:03:21;;;;;;;0.10;0.10;;;;;;;12.28;82.33;99185.47;7369638;19;19915;-63
2024/03/14 06:05:50;;;;;;;0.10;0.10;;;;;;;12.30;82.04;99198.47;7367298;19;19994;-62
2024/03/14 06:08:15;;;;;;;0.20;0.20;;;;;;;12.29;82.35;99181.06;7369350;19;20005;-63
2024/03/14 06:10:41;;;;;;;0.10;0.10;;;;;;;12.29;81.93;99188.94;7362907;19;19998;-62
2024/03/14 06:13:06;;;;;;;0.10;0.10;;;;;;;12.29;82.01;99181.06;7365551;19;20020;-63
2024/03/14 06:15:34;;;;;;;0.10;0.10;;;;;;;12.28;82.01;99179.41;7368996;19;20520;-62
2024/03/14 06:17:59;;;;;;;0.10;0.10;;;;;;;12.29;81.98;99176.69;7361842;19;20018;-62
2024/03/14 06:20:24;;;;;;;0.10;0.10;;;;;;;12.26;82.37;99165.53;7367713;19;20006;-63
2024/03/14 06:22:50;;;;;;;0.20;0.20;;;;;;;12.31;82.49;99168.75;7365037;19;20045;-62
2024/03/14 06:25:16;;;;;;;0.10;0.10;;;;;;;12.32;82.43;99180.91;7367686;19;20094;-62
2024/03/14 06:27:41;;;;;;;0.20;0.20;;;;;;;12.25;82.37;99163.84;7364610;19;19994;-63
2024/03/14 06:30:11;;;;;;;0.10;0.10;;;;;;;12.32;82.53;99184.38;7367872;19;20002;-62
2024/03/14 06:32:36;;;;;;;0.10;0.10;;;;;;;12.32;82.54;99171.28;7360293;19;21060;-62
2024/03/14 06:35:03;;;;;;;0.10;0.10;;;;;;;12.32;82.42;99173.06;7365994;19;20012;-62
2024/03/14 06:37:29;;;;;;;0.20;0.20;;;;;;;12.31;82.07;99168.75;7367654;19;20002;-62
2024/03/14 06:39:54;;;;;;;0.10;0.10;;;;;;;12.31;82.54;99173.97;7367350;19;20034;-61
2024/03/14 06:42:20;;;;;;;0.10;0.10;;;;;;;12.31;82.35;99174.81;7363765;19;20042;-61
2024/03/14 06:44:47;;;;;;;0.10;0.10;;;;;;;12.20;82.30;99161.47;7359890;19;20402;-62
2024/03/14 06:47:13;;;;;;;0.10;0.10;;;;;;;12.29;82.43;99170.59;7365857;19;21009;-62
2024/03/14 06:49:40;;;;;;;0.10;0.10;;;;;;;12.25;82.31;99169.06;7364569;19;20003;-61
2024/03/14 06:52:06;;;;;;;0.10;0.10;;;;;;;12.27;82.23;99175.09;7362694;19;20033;-61
2024/03/14 06:54:31;;;;;;;0.17;0.17;;;;;;;12.26;82.65;99170.75;7360666;19;20614;-62
2024/03/14 06:57:00;;;;;;;0.10;0.10;;;;;;;12.25;82.62;99164.69;7364485;19;19995;-62
2024/03/14 06:59:26;;;;;;;0.20;0.20;;;;;;;12.24;82.29;99168.22;7363603;19;20355;-62
2024/03/14 07:01:52;;;;;;;0.10;0.10;;;;;;;12.24;82.48;99168.22;7362189;19;20010;-61
2024/03/14 07:04:20;;;;;;;0.10;0.10;;;;;;;12.24;82.33;99168.22;7363956;19;20006;-62
2024/03/14 07:06:46;;;;;;;0.10;0.10;;;;;;;12.22;82.40;99174.50;7366245;19;19999;-62
2024/03/14 07:09:17;;;;;;;0.10;0.10;;;;;;;12.24;82.77;99172.63;7365312;19;20012;-61
2024/03/14 07:11:45;;;;;;;0.10;0.10;;;;;;;12.20;82.75;99164.09;7365270;19;20007;-61
2024/03/14 07:14:11;;;;;;;0.20;0.20;;;;;;;12.22;82.45;99175.34;7364801;19;20021;-62
2024/03/14 07:16:38;;;;;;;0.10;0.10;;;;;;;12.23;82.68;99181.41;7364123;19;20006;-61
2024/03/14 07:19:06;;;;;;;0.10;0.10;;;;;;;12.20;82.32;99178.00;7362937;19;20673;-62
2024/03/14 07:21:33;;;;;;;0.10;0.10;;;;;;;12.23;82.45;99177.03;7362626;19;20521;-61
2024/03/14 07:23:59;;;;;;;0.10;0.10;;;;;;;12.24;82.31;99170.00;7364992;19;20002;-61
2024/03/14 07:26:24;;;;;;;0.10;0.10;;;;;;;12.23;82.37;99166.56;7366275;19;20790;-61
2024/03/14 07:28:53;;;;;;;0.10;0.10;;;;;;;12.24;82.67;99168.22;7363778;19;19995;-62
2024/03/14 07:31:22;;;;;;;0.10;0.10;;;;;;;12.27;82.75;99164.63;7362168;19;20780;-61
2024/03/14 07:33:48;;;;;;;0.13;0.13;;;;;;;12.24;82.24;99162.16;7361836;19;20059;-60
2024/03/14 07:36:17;;;;;;;0.10;0.10;;;;;;;12.26;82.26;99165.53;7363417;19;20356;-62
2024/03/14 07:38:49;;;;;;;0.13;0.13;;;;;;;12.19;82.45;99142.31;7363900;19;20038;-61
2024/03/14 07:41:21;;;;;;;0.10;0.10;;;;;;;12.19;82.52;99139.69;7364195;19;20018;-60
2024/03/14 07:43:46;;;;;;;0.10;0.10;;;;;;;12.30;82.69;99156.59;7363977;19;20018;-61
2024/03/14 07:46:12;;;;;;;0.10;0.10;;;;;;;12.23;82.86;99140.38;7363977;19;20007;-61
2024/03/14 07:48:38;;;;;;;0.10;0.10;;;;;;;12.35;82.88;99154.56;7365951;19;20018;-62
2024/03/14 07:51:04;;;;;;;0.10;0.10;;;;;;;12.37;82.92;99160.56;7364623;19;20321;-62
2024/03/14 07:53:30;;;;;;;0.10;0.10;;;;;;;12.36;82.68;99146.63;7360729;19;20426;-61
2024/03/14 07:55:56;;;;;;;0.10;0.10;;;;;;;12.26;82.71;99131.50;7361476;19;20685;-62
2024/03/14 07:58:22;;;;;;;0.10;0.10;;;;;;;12.44;82.34;99160.13;7363337;19;20062;-61
2024/03/14 08:00:48;;;;;;;0.17;0.17;;;;;;;12.46;82.80;99157.44;7366403;19;20011;-62
2024/03/14 08:03:13;;;;;;;0.10;0.10;;;;;;;12.30;82.62;99119.94;7361492;19;20002;-62
2024/03/14 08:05:39;;;;;;;0.10;0.10;;;;;;;12.49;82.76;99140.72;7363611;19;20017;-62
2024/03/14 08:08:07;;;;;;;0.10;0.10;;;;;;;12.52;82.22;99141.41;7362050;19;20577;-62
2024/03/14 08:10:33;;;;;;;0.10;0.10;;;;;;;12.53;82.78;99135.22;7364627;19;20014;-63
2024/03/14 08:12:58;;;;;;;0.10;0.10;;;;;;;12.55;82.52;99146.44;7356987;19;20034;-62
2024/03/14 08:15:35;;;;;;;0.20;0.20;;;;;;;12.57;82.64;99134.13;7364801;19;19998;-62
2024/03/14 08:18:05;;;;;;;0.20;0.20;;;;;;;12.58;82.59;99130.59;7359961;19;20004;-62
2024/03/14 08:20:36;;;;;;;0.10;0.10;;;;;;;12.59;82.06;99137.50;7362915;19;20006;-62
2024/03/14 08:23:04;;;;;;;0.10;0.10;;;;;;;12.60;82.44;99128.72;7363991;19;20014;-62
2024/03/14 08:25:31;;;;;;;0.10;0.10;;;;;;;12.51;82.55;99121.38;7363424;19;20006;-62
2024/03/14 08:27:56;;;;;;;0.20;0.20;;;;;;;12.61;82.33;99135.63;7361163;19;20010;-63
2024/03/14 08:30:23;;;;;;;0.10;0.10;;;;;;;12.63;82.42;99128.56;7363318;19;19998;-62
2024/03/14 08:32:49;;;;;;;0.10;0.10;;;;;;;12.65;82.16;99134.53;7355669;19;20031;-62
2024/03/14 08:35:15;;;;;;;0.10;0.10;;;;;;;12.66;82.36;99122.28;7361411;19;20028;-62
2024/03/14 08:37:44;;;;;;;0.10;0.10;;;;;;;12.50;82.20;99103.13;7366578;19;20037;-63
2024/03/14 08:40:10;;;;;;;0.10;0.10;;;;;;;12.66;81.95;99125.75;7355098;19;20009;-62
2024/03/14 08:42:37;;;;;;;0.20;0.20;;;;;;;12.67;82.30;99134.44;7359524;19;20010;-62
2024/03/14 08:45:03;;;;;;;0.10;0.10;;;;;;;12.67;82.33;99124.84;7370137;19;20011;-62
2024/03/14 08:47:29;;;;;;;0.10;0.10;;;;;;;12.66;81.91;99122.28;7366354;19;20014;-62
2024/03/14 08:49:55;;;;;;;0.20;0.20;;;;;;;12.70;82.26;99124.63;7369925;19;20032;-63
2024/03/14 08:52:26;;;;;;;0.10;0.10;;;;;;;12.75;82.07;99120.94;7372455;19;20007;-62
2024/03/14 08:54:52;;;;;;;0.10;0.10;;;;;;;12.73;82.03;99119.25;7371773;19;20014;-63
2024/03/14 08:57:18;;;;;;;0.10;0.10;;;;;;;12.76;82.27;99117.38;7370394;19;20019;-62
2024/03/14 08:59:44;;;;;;;0.10;0.10;;;;;;;12.77;82.14;99114.66;7371984;19;20003;-62
2024/03/14 09:02:11;;;;;;;0.10;0.10;;;;;;;12.80;82.36;99113.66;7371359;19;20502;-62
2024/03/14 09:04:41;;;;;;;0.10;0.10;;;;;;;12.80;82.44;99116.28;7371975;19;20439;-62
2024/03/14 09:07:06;;;;;;;0.20;0.20;;;;;;;12.82;82.50;99117.00;7364255;19;20007;-62
2024/03/14 09:09:35;;;;;;;0.10;0.10;;;;;;;12.84;82.47;99107.31;7367423;19;19998;-62
2024/03/14 09:12:25;;;;;;;0.10;0.10;;;;;;;12.88;82.14;99104.44;7365210;19;20013;-62
2024/03/14 09:14:50;;;;;;;0.10;0.10;;;;;;;12.89;82.47;99105.28;7367455;19;20034;-62
2024/03/14 09:17:15;;;;;;;0.10;0.10;;;;;;;12.91;82.50;99093.75;7370057;19;20261;-62
2024/03/14 09:19:41;;;;;;;0.20;0.20;;;;;;;12.95;82.18;99097.06;7370280;19;20285;-62
2024/03/14 09:22:08;;;;;;;0.20;0.20;;;;;;;12.99;82.25;99095.94;7365915;19;20098;-62
2024/03/14 09:24:35;;;;;;;0.10;0.10;;;;;;;13.05;82.42;99087.72;7367828;19;20006;-62
2024/03/14 09:27:03;;;;;;;0.13;0.13;;;;;;;13.11;82.35;99087.34;7367202;19;20011;-62
2024/03/14 09:29:28;;;;;;;0.10;0.10;;;;;;;13.15;82.18;99078.38;7367144;19;20014;-62
2024/03/14 09:31:56;;;;;;;0.10;0.10;;;;;;;13.26;81.93;99090.03;7368621;19;20825;-62
2024/03/14 09:34:22;;;;;;;0.10;0.10;;;;;;;13.32;81.82;99094.91;7367640;19;20014;-62
2024/03/14 09:36:50;;;;;;;0.10;0.10;;;;;;;13.39;81.96;99088.38;7368842;19;20031;-62
2024/03/14 09:39:18;;;;;;;0.10;0.10;;;;;;;13.33;82.08;99057.25;7368083;19;20014;-62
2024/03/14 09:41:46;;;;;;;0.10;0.10;;;;;;;13.33;81.62;99050.28;7365933;19;20021;-63
2024/03/14 09:44:15;;;;;;;0.10;0.10;;;;;;;13.55;81.89;99076.03;7365566;19;20037;-63
2024/03/14 09:46:48;;;;;;;0.10;0.10;;;;;;;13.64;81.73;99085.97;7363878;19;20010;-63
2024/03/14 09:49:18;;;;;;;0.13;0.13;;;;;;;13.68;82.12;99071.69;7362620;19;20010;-63
2024/03/14 09:51:48;;;;;;;0.10;0.10;;;;;;;13.69;81.59;99076.03;7366371;19;20070;-63
2024/03/14 09:54:16;;;;;;;0.10;0.10;;;;;;;13.76;81.59;99079.94;7364858;19;20074;-63
2024/03/14 09:56:42;;;;;;;0.10;0.10;;;;;;;13.73;81.66;99072.25;7366438;19;20041;-63
2024/03/14 09:59:07;;;;;;;0.10;0.10;;;;;;;13.81;81.44;99076.22;7364914;19;19998;-63
2024/03/14 10:01:34;;;;;;;0.10;0.10;;;;;;;13.82;81.30;99068.22;7362038;19;20007;-63
2024/03/14 10:04:00;;;;;;;0.20;0.20;;;;;;;13.88;81.73;99064.38;7364303;19;20015;-63
2024/03/14 10:06:25;;;;;;;0.10;0.10;;;;;;;13.92;81.67;99071.97;7358662;19;20037;-62
2024/03/14 10:08:51;;;;;;;0.10;0.10;;;;;;;13.97;81.51;99071.69;7359813;19;20010;-63
2024/03/14 10:11:20;;;;;;;0.10;0.10;;;;;;;14.01;81.60;99078.44;7363943;19;20006;-63
2024/03/14 10:13:46;;;;;;;0.10;0.10;;;;;;;14.04;81.23;99067.75;7364504;19;20433;-63
2024/03/14 10:16:15;;;;;;;0.20;0.20;;;;;;;14.06;81.06;99065.88;7363217;19;20376;-63
2024/03/14 10:18:41;;;;;;;0.10;0.10;;;;;;;14.09;80.85;99060.44;7366339;19;20007;-63
2024/03/14 10:21:07;;;;;;;0.10;0.10;;;;;;;14.10;80.87;99067.34;7363981;19;20007;-63
2024/03/14 10:23:35;;;;;;;0.10;0.10;;;;;;;14.11;80.84;99053.28;7366808;19;20048;-64
2024/03/14 10:26:01;;;;;;;0.10;0.10;;;;;;;14.11;80.93;99053.28;7365514;19;20037;-63
2024/03/14 10:28:33;;;;;;;0.20;0.20;;;;;;;14.12;81.04;99051.50;7362490;19;20014;-63
2024/03/14 10:31:02;;;;;;;0.10;0.10;;;;;;;13.97;80.53;99034.94;7364773;19;20014;-63
2024/03/14 10:33:28;;;;;;;0.10;0.10;;;;;;;13.95;80.67;99031.59;7361616;19;20748;-63
2024/03/14 10:35:58;;;;;;;0.10;0.10;;;;;;;14.05;80.89;99037.94;7351627;19;20002;-63
2024/03/14 10:38:25;;;;;;;0.20;0.20;;;;;;;14.00;80.76;99037.38;7365056;19;20003;-63
2024/03/14 10:40:57;;;;;;;0.10;0.10;;;;;;;13.99;80.88;99023.44;7359723;19;20007;-63
2024/03/14 10:43:29;;;;;;;0.10;0.10;;;;;;;13.98;80.86;99032.22;7363735;19;20002;-63
2024/03/14 10:45:55;;;;;;;0.10;0.10;;;;;;;13.96;80.83;99023.59;7363128;19;20006;-64
2024/03/14 10:48:23;;;;;;;0.10;0.10;;;;;;;13.97;81.21;99020.03;7363304;19;20083;-63
2024/03/14 10:50:57;;;;;;;0.10;0.10;;;;;;;13.99;81.12;99019.97;7364407;19;20006;-63
2024/03/14 10:53:24;;;;;;;0.10;0.10;;;;;;;13.96;80.90;99013.09;7354969;19;20039;-63
2024/03/14 10:55:51;;;;;;;0.10;0.10;;;;;;;13.90;81.27;98996.91;7363805;19;20011;-62
2024/03/14 10:58:18;;;;;;;;;;;;;;;14.05;81.24;99016.94;7363749;19;20020;-63
2024/03/14 11:00:45;;;;;;;0.20;0.20;;;;;;;14.01;80.89;99015.44;7360797;19;20263;-63
2024/03/14 11:03:17;;;;;;;0.10;0.10;;;;;;;14.02;81.01;99011.88;7363606;19;20020;-63
2024/03/14 11:05:50;;;;;;;0.20;0.20;;;;;;;14.01;81.21;99013.66;7363199;19;20007;-63
2024/03/14 11:08:17;;;;;;;0.10;0.10;;;;;;;14.01;81.03;99002.31;7361416;19;20041;-63
2024/03/14 11:10:46;;;;;;;0.10;0.10;;;;;;;14.01;80.83;99003.16;7359995;19;19995;-63
2024/03/14 11:13:25;;;;;;;0.10;0.10;;;;;;;13.99;81.21;98991.94;7364157;19;20351;-63
2024/03/14 11:15:54;;;;;;;0.20;0.20;;;;;;;14.01;81.16;98999.69;7356472;19;20018;-64
2024/03/14 11:18:24;;;;;;;0.10;0.10;;;;;;;14.04;81.31;98994.25;7362160;19;20493;-63
2024/03/14 11:20:55;;;;;;;0.10;0.10;;;;;;;14.08;81.00;98984.38;7361584;19;20027;-63
2024/03/14 11:23:24;;;;;;;0.10;0.10;;;;;;;14.10;81.28;98988.63;7364621;19;20010;-63
2024/03/14 11:25:55;;;;;;;0.10;0.10;;;;;;;14.12;81.52;98988.50;7359452;19;20019;-63
2024/03/14 11:28:23;;;;;;;0.10;0.10;;;;;;;14.15;81.56;98990.94;7361330;19;20017;-64
2024/03/14 11:30:55;;;;;;;0.10;0.10;;;;;;;14.19;81.63;98990.66;7364706;19;20759;-64
2024/03/14 11:33:20;;;;;;;0.10;0.10;;;;;;;14.19;81.29;98988.03;7357188;19;20387;-63